Have a Safe July 4th! 

Flight Track Log - Related Links

Times and Time Zones

All times are in EDT time to prevent confusion due to time zone crossing. See the AAL492 flight status page for this flight to view local times or setup timezone preferences in your user account.

Time Position Orientation Groundspeed Altitude Reporting Facility
EDT Latitude Longitude Course Direction KTS MPH feet Rate Location/Type
Sun 04:09:32 PM 26.2307 -98.2419 173° South  Level FlightAware Approximate
Sun 04:09:35 PM 26.1642 -98.2325 North 103 119 1,100  Level Houston Center
Sun 04:14:56 PM 26.5658 -98.2117 356° North 351 404 16,500 2,803 Climbing Houston Center
Sun 04:15:56 PM 26.6697 -98.2203 356° North 373 429 18,900 2,400 Climbing Houston Center
Sun 04:16:56 PM 26.7881 -98.2294 356° North 408 470 21,300 2,150 Climbing Houston Center
Sun 04:17:56 PM 26.8919 -98.2381 356° North 413 475 23,200 2,218 Climbing Houston Center
Sun 04:18:55 PM 27.0128 -98.2475 357° North 425 489 25,700 2,100 Climbing Houston Center
Sun 04:19:56 PM 27.1333 -98.2544 355° North 425 489 27,400 1,983 Climbing Houston Center
Sun 04:20:56 PM 27.2581 -98.2667 357° North 436 502 29,700 1,950 Climbing Houston Center
Sun 04:21:56 PM 27.3786 -98.2739 356° North 436 502 31,300 1,550 Climbing Houston Center
Sun 04:22:56 PM 27.4992 -98.2836 355° North 436 502 32,800 1,300 Climbing Houston Center
Sun 04:23:56 PM 27.6217 -98.2956 357° North 436 502 33,900 1,311 Climbing Houston Center
Sun 04:24:55 PM 27.7444 -98.3031 356° North 436 502 35,400 1,100 Climbing Houston Center
Sun 04:25:56 PM 27.8650 -98.3128 356° North 436 502 36,100 645 Climbing Houston Center
Sun 04:26:56 PM 27.9897 -98.3228 357° North 441 507 36,700 450 Climbing Houston Center
Sun 04:27:56 PM 28.1106 -98.3303 356° North 441 507 37,000 150 Climbing Houston Center
Sun 04:28:56 PM 28.2311 -98.3403 355° North 441 507 37,000  Level Houston Center
Sun 04:29:56 PM 28.3536 -98.3525 354° North 441 507 37,000  Level Houston Center
Sun 04:30:56 PM 28.4758 -98.3672 357° North 441 507 37,000 -50 Level Houston Center
Sun 04:31:56 PM 28.6008 -98.3750 355° North 441 507 36,900  Descending Houston Center
Sun 04:32:56 PM 28.7192 -98.3872 356° North 436 502 37,000 50 Climbing Houston Center
Sun 04:33:56 PM 28.8519 -98.3981 357° North 436 502 37,000  Level Houston Center
Sun 04:34:56 PM 28.9644 -98.4053 355° North 442 509 37,000  Level Houston Center
Sun 04:35:56 PM 29.0972 -98.4186 357° North 437 503 37,000  Level Houston Center
Sun 04:36:56 PM 29.2075 -98.4256 356° North 437 503 37,000  Level Houston Center
Sun 04:37:56 PM 29.3403 -98.4367 356° North 436 502 37,000  Level Houston Center
Sun 04:38:56 PM 29.4525 -98.4464 356° North 438 504 37,000  Level Houston Center
Sun 04:39:55 PM 29.5772 -98.4569 North 444 511 37,000  Level Houston Center
Sun 04:40:56 PM 29.7192 -98.4519 North 458 527 37,000  Level Houston Center
Sun 04:41:56 PM 29.8433 -98.4336 North 458 527 37,000  Level Houston Center
Sun 04:42:56 PM 29.9653 -98.4153 North 445 512 37,000  Level Houston Center
Sun 04:43:56 PM 30.0911 -98.3972 North 450 518 37,000  Level Houston Center
Sun 04:44:56 PM 30.2172 -98.3792 North 450 518 37,000  Level Houston Center
Sun 04:45:56 PM 30.3286 -98.3625 North 450 518 37,000  Level Houston Center
Sun 04:46:56 PM 30.4547 -98.3444 North 455 524 37,000  Level Houston Center
Sun 04:47:55 PM 30.5911 -98.3244 North 455 524 37,000  Level Houston Center
Sun 04:48:56 PM 30.7172 -98.3061 North 450 518 37,000  Level Houston Center
Sun 04:50:15 PM 30.8844 -98.2797 North 463 533 37,000  Level Fort Worth Center
Sun 04:51:15 PM 31.0078 -98.2617 11° North 455 524 37,000 -150 Level Fort Worth Center
Sun 04:52:15 PM 31.1333 -98.2336 26° Northeast 455 524 36,700 -1,050 Descending Fort Worth Center
Sun 04:53:15 PM 31.2528 -98.1667 24° Northeast 461 531 34,900 -2,350 Descending Fort Worth Center
Sun 04:54:15 PM 31.3700 -98.1042 26° Northeast 461 531 32,000 -2,450 Descending Fort Worth Center
Sun 04:55:15 PM 31.4747 -98.0442 24° Northeast 461 531 30,000 -2,400 Descending Fort Worth Center
Sun 04:56:15 PM 31.5919 -97.9842 26° Northeast 461 531 27,200 -2,450 Descending Fort Worth Center
Sun 04:57:15 PM 31.7028 -97.9214 24° Northeast 450 518 25,100 -2,233 Descending Fort Worth Center
Sun 04:59:15 PM 31.9225 -97.8050 25° Northeast 425 489 20,500 -2,200 Descending Fort Worth Center
Sun 05:00:15 PM 32.0228 -97.7492 25° Northeast 407 468 18,500 -2,146 Descending Fort Worth Center
Sun 05:01:18 PM 32.1261 -97.6933 24° Northeast 396 456 16,100 -2,220 Descending FAA TRACON SMA TRACON (SMA)
Sun 05:01:55 PM 32.1942 -97.6578 24° Northeast 383 441 14,800 -2,104 Descending FAA TRACON SMA TRACON (SMA)
Sun 05:02:35 PM 32.2594 -97.6231 25° Northeast 371 427 13,400 -1,747 Descending FAA TRACON SMA TRACON (SMA)
Sun 05:03:14 PM 32.3156 -97.5917 25° Northeast 361 415 12,500 -1,519 Descending FAA TRACON SMA TRACON (SMA)
Sun 05:03:54 PM 32.3767 -97.5575 24° Northeast 350 403 11,400 -1,125 Descending FAA TRACON SMA TRACON (SMA)
Sun 05:04:34 PM 32.4306 -97.5289 33° Northeast 343 395 11,000 -300 Descending FAA TRACON SMA TRACON (SMA)
Sun 05:05:14 PM 32.4856 -97.4869 45° Northeast 342 394 11,000 -74 Level FAA TRACON SMA TRACON (SMA)
Sun 05:05:55 PM 32.5314 -97.4322 46° Northeast 337 388 10,900 -73 Descending FAA TRACON SMA TRACON (SMA)
Sun 05:06:36 PM 32.5772 -97.3764 46° Northeast 340 391 10,900  Level FAA TRACON SMA TRACON (SMA)
Sun 05:07:15 PM 32.6172 -97.3267 45° Northeast 339 390 10,900 77 Level FAA TRACON SMA TRACON (SMA)
Sun 05:07:54 PM 32.6622 -97.2733 46° Northeast 324 373 11,000  Climbing FAA TRACON SMA TRACON (SMA)
Sun 05:08:34 PM 32.6972 -97.2303 45° Northeast 290 334 10,900 -75 Descending FAA TRACON SMA TRACON (SMA)
Sun 05:09:14 PM 32.7347 -97.1856 18° North 271 312 10,900 -148 Level FAA TRACON SMA TRACON (SMA)
Sun 05:09:55 PM 32.7814 -97.1678 360° North 270 311 10,700 -951 Descending FAA TRACON SMA TRACON (SMA)
Sun 05:10:36 PM 32.8275 -97.1681 359° North 269 310 9,600 -1,650 Descending FAA TRACON SMA TRACON (SMA)
Sun 05:11:15 PM 32.8803 -97.1689 North 275 316 8,500 -1,519 Descending FAA TRACON SMA TRACON (SMA)
Sun 05:11:55 PM 32.9339 -97.1675 North 276 318 7,600 -1,275 Descending FAA TRACON SMA TRACON (SMA)
Sun 05:12:35 PM 32.9797 -97.1661 10° North 268 308 6,800 -1,200 Descending FAA TRACON SMA TRACON (SMA)
Sun 05:13:15 PM 33.0278 -97.1556 70° East 261 300 6,000 -1,367 Descending FAA TRACON SMA TRACON (SMA)
Sun 05:13:54 PM 33.0414 -97.1119 90° East 234 269 5,000 -1,291 Descending FAA TRACON SMA TRACON (SMA)
Sun 05:14:34 PM 33.0411 -97.0686 90° East 193 222 4,300 -1,050 Descending FAA TRACON SMA TRACON (SMA)

Login

Don't have an account? Register now (free) for customized features, flight alerts, and more!